sensor_id;sensor_type;location;lat;lon;timestamp;P1;durP1;ratioP1;P2;durP2;ratioP2
56541;SDS011;42438;53.174;6.730;2024-03-02T00:02:11;8.70;;;4.13;;
56541;SDS011;42438;53.174;6.730;2024-03-02T00:04:44;7.55;;;3.92;;
56541;SDS011;42438;53.174;6.730;2024-03-02T00:07:15;9.70;;;4.60;;
56541;SDS011;42438;53.174;6.730;2024-03-02T00:09:46;7.45;;;4.07;;
56541;SDS011;42438;53.174;6.730;2024-03-02T00:12:16;8.93;;;4.00;;
56541;SDS011;42438;53.174;6.730;2024-03-02T00:14:47;9.95;;;4.18;;
56541;SDS011;42438;53.174;6.730;2024-03-02T00:17:24;8.25;;;3.95;;
56541;SDS011;42438;53.174;6.730;2024-03-02T00:19:58;10.18;;;4.47;;
56541;SDS011;42438;53.174;6.730;2024-03-02T00:22:28;8.20;;;3.65;;
56541;SDS011;42438;53.174;6.730;2024-03-02T00:24:59;9.25;;;4.28;;
56541;SDS011;42438;53.174;6.730;2024-03-02T00:27:29;8.85;;;4.35;;
56541;SDS011;42438;53.174;6.730;2024-03-02T00:30:01;8.05;;;3.83;;
56541;SDS011;42438;53.174;6.730;2024-03-02T00:32:36;7.50;;;3.33;;
56541;SDS011;42438;53.174;6.730;2024-03-02T00:35:06;5.75;;;3.45;;
56541;SDS011;42438;53.174;6.730;2024-03-02T00:37:37;6.20;;;3.78;;
56541;SDS011;42438;53.174;6.730;2024-03-02T00:40:08;7.28;;;3.20;;
56541;SDS011;42438;53.174;6.730;2024-03-02T00:42:42;5.30;;;3.15;;
56541;SDS011;42438;53.174;6.730;2024-03-02T00:45:13;6.63;;;3.75;;
56541;SDS011;42438;53.174;6.730;2024-03-02T00:47:43;6.40;;;3.45;;
56541;SDS011;42438;53.174;6.730;2024-03-02T00:50:14;7.63;;;3.17;;
56541;SDS011;42438;53.174;6.730;2024-03-02T00:52:45;8.48;;;3.92;;
56541;SDS011;42438;53.174;6.730;2024-03-02T00:55:20;7.10;;;3.78;;
56541;SDS011;42438;53.174;6.730;2024-03-02T00:57:51;6.15;;;4.05;;
56541;SDS011;42438;53.174;6.730;2024-03-02T01:00:22;6.63;;;3.72;;
56541;SDS011;42438;53.174;6.730;2024-03-02T01:02:52;6.60;;;3.90;;
56541;SDS011;42438;53.174;6.730;2024-03-02T01:05:23;6.80;;;3.83;;
56541;SDS011;42438;53.174;6.730;2024-03-02T01:07:53;7.22;;;4.35;;
56541;SDS011;42438;53.174;6.730;2024-03-02T01:10:24;5.95;;;3.38;;
56541;SDS011;42438;53.174;6.730;2024-03-02T01:12:55;6.82;;;3.95;;
56541;SDS011;42438;53.174;6.730;2024-03-02T01:15:26;8.00;;;3.72;;
56541;SDS011;42438;53.174;6.730;2024-03-02T01:17:57;7.10;;;3.88;;
56541;SDS011;42438;53.174;6.730;2024-03-02T01:20:27;8.80;;;3.80;;
56541;SDS011;42438;53.174;6.730;2024-03-02T01:22:58;9.85;;;4.47;;
56541;SDS011;42438;53.174;6.730;2024-03-02T01:25:29;8.05;;;4.45;;
56541;SDS011;42438;53.174;6.730;2024-03-02T01:27:59;8.20;;;4.18;;
56541;SDS011;42438;53.174;6.730;2024-03-02T01:30:30;9.32;;;5.22;;
56541;SDS011;42438;53.174;6.730;2024-03-02T01:33:01;8.80;;;4.60;;
56541;SDS011;42438;53.174;6.730;2024-03-02T01:35:32;11.52;;;4.90;;
56541;SDS011;42438;53.174;6.730;2024-03-02T01:38:03;14.93;;;5.57;;
56541;SDS011;42438;53.174;6.730;2024-03-02T01:40:36;11.35;;;5.07;;
56541;SDS011;42438;53.174;6.730;2024-03-02T01:43:07;9.48;;;4.65;;
56541;SDS011;42438;53.174;6.730;2024-03-02T01:45:38;8.70;;;4.13;;
56541;SDS011;42438;53.174;6.730;2024-03-02T01:48:09;10.52;;;4.07;;
56541;SDS011;42438;53.174;6.730;2024-03-02T01:50:40;9.10;;;4.10;;
56541;SDS011;42438;53.174;6.730;2024-03-02T01:53:10;7.93;;;4.35;;
56541;SDS011;42438;53.174;6.730;2024-03-02T01:55:41;6.78;;;3.92;;
56541;SDS011;42438;53.174;6.730;2024-03-02T01:58:11;7.45;;;3.88;;
56541;SDS011;42438;53.174;6.730;2024-03-02T02:00:42;7.10;;;3.97;;
56541;SDS011;42438;53.174;6.730;2024-03-02T02:03:13;6.53;;;3.60;;
56541;SDS011;42438;53.174;6.730;2024-03-02T02:05:44;6.63;;;3.95;;
56541;SDS011;42438;53.174;6.730;2024-03-02T02:08:15;7.25;;;4.13;;
56541;SDS011;42438;53.174;6.730;2024-03-02T02:10:46;7.90;;;3.95;;
56541;SDS011;42438;53.174;6.730;2024-03-02T02:13:17;8.38;;;4.15;;
56541;SDS011;42438;53.174;6.730;2024-03-02T02:15:48;6.50;;;3.60;;
56541;SDS011;42438;53.174;6.730;2024-03-02T02:18:19;7.78;;;4.30;;
56541;SDS011;42438;53.174;6.730;2024-03-02T02:20:49;7.55;;;3.90;;
56541;SDS011;42438;53.174;6.730;2024-03-02T02:23:20;7.57;;;4.13;;
56541;SDS011;42438;53.174;6.730;2024-03-02T02:25:50;6.50;;;3.88;;
56541;SDS011;42438;53.174;6.730;2024-03-02T02:28:21;7.30;;;3.75;;
56541;SDS011;42438;53.174;6.730;2024-03-02T02:30:52;6.00;;;3.92;;
56541;SDS011;42438;53.174;6.730;2024-03-02T02:33:26;6.03;;;3.45;;
56541;SDS011;42438;53.174;6.730;2024-03-02T02:35:57;6.97;;;3.10;;
56541;SDS011;42438;53.174;6.730;2024-03-02T02:38:27;5.68;;;3.50;;
56541;SDS011;42438;53.174;6.730;2024-03-02T02:40:58;6.72;;;3.40;;
56541;SDS011;42438;53.174;6.730;2024-03-02T02:43:28;8.10;;;3.50;;
56541;SDS011;42438;53.174;6.730;2024-03-02T02:45:59;6.38;;;3.35;;
56541;SDS011;42438;53.174;6.730;2024-03-02T02:48:30;6.22;;;3.28;;
56541;SDS011;42438;53.174;6.730;2024-03-02T02:51:00;6.22;;;3.35;;
56541;SDS011;42438;53.174;6.730;2024-03-02T02:53:31;6.28;;;3.25;;
56541;SDS011;42438;53.174;6.730;2024-03-02T02:56:02;6.45;;;3.35;;
56541;SDS011;42438;53.174;6.730;2024-03-02T02:58:32;6.10;;;3.17;;
56541;SDS011;42438;53.174;6.730;2024-03-02T03:01:03;6.00;;;2.75;;
56541;SDS011;42438;53.174;6.730;2024-03-02T03:03:34;5.55;;;3.20;;
56541;SDS011;42438;53.174;6.730;2024-03-02T03:06:04;6.68;;;3.25;;
56541;SDS011;42438;53.174;6.730;2024-03-02T03:08:35;6.07;;;3.03;;
56541;SDS011;42438;53.174;6.730;2024-03-02T03:11:06;5.55;;;3.40;;
56541;SDS011;42438;53.174;6.730;2024-03-02T03:13:37;5.47;;;2.60;;
56541;SDS011;42438;53.174;6.730;2024-03-02T03:16:07;4.72;;;2.70;;
56541;SDS011;42438;53.174;6.730;2024-03-02T03:18:38;5.75;;;3.08;;
56541;SDS011;42438;53.174;6.730;2024-03-02T03:21:09;4.45;;;2.85;;
56541;SDS011;42438;53.174;6.730;2024-03-02T03:23:39;6.70;;;3.03;;
56541;SDS011;42438;53.174;6.730;2024-03-02T03:26:10;5.78;;;2.72;;
56541;SDS011;42438;53.174;6.730;2024-03-02T03:28:41;4.75;;;2.85;;
56541;SDS011;42438;53.174;6.730;2024-03-02T03:31:11;7.22;;;2.88;;
56541;SDS011;42438;53.174;6.730;2024-03-02T03:33:42;5.50;;;2.67;;
56541;SDS011;42438;53.174;6.730;2024-03-02T03:36:12;5.63;;;2.88;;
56541;SDS011;42438;53.174;6.730;2024-03-02T03:38:43;5.47;;;2.70;;
56541;SDS011;42438;53.174;6.730;2024-03-02T03:41:14;6.40;;;2.90;;
56541;SDS011;42438;53.174;6.730;2024-03-02T03:43:45;4.78;;;2.63;;
56541;SDS011;42438;53.174;6.730;2024-03-02T03:46:16;4.28;;;2.22;;
56541;SDS011;42438;53.174;6.730;2024-03-02T03:48:46;6.65;;;2.63;;
56541;SDS011;42438;53.174;6.730;2024-03-02T03:51:17;5.25;;;2.75;;
56541;SDS011;42438;53.174;6.730;2024-03-02T03:53:48;4.40;;;2.50;;
56541;SDS011;42438;53.174;6.730;2024-03-02T03:56:19;4.22;;;2.22;;
56541;SDS011;42438;53.174;6.730;2024-03-02T03:58:49;4.22;;;2.30;;
56541;SDS011;42438;53.174;6.730;2024-03-02T04:01:20;4.82;;;2.63;;
56541;SDS011;42438;53.174;6.730;2024-03-02T04:03:52;3.20;;;2.20;;
56541;SDS011;42438;53.174;6.730;2024-03-02T04:06:23;4.28;;;2.22;;
56541;SDS011;42438;53.174;6.730;2024-03-02T04:08:54;4.25;;;2.40;;
56541;SDS011;42438;53.174;6.730;2024-03-02T04:11:24;4.18;;;2.17;;
56541;SDS011;42438;53.174;6.730;2024-03-02T04:13:55;4.18;;;2.47;;
56541;SDS011;42438;53.174;6.730;2024-03-02T04:16:25;5.72;;;2.55;;
56541;SDS011;42438;53.174;6.730;2024-03-02T04:18:56;4.32;;;2.40;;
56541;SDS011;42438;53.174;6.730;2024-03-02T04:21:27;4.55;;;2.10;;
56541;SDS011;42438;53.174;6.730;2024-03-02T04:23:57;4.95;;;2.38;;
56541;SDS011;42438;53.174;6.730;2024-03-02T04:26:29;5.40;;;2.75;;
56541;SDS011;42438;53.174;6.730;2024-03-02T04:28:59;4.13;;;2.33;;
56541;SDS011;42438;53.174;6.730;2024-03-02T04:31:30;6.82;;;2.60;;
56541;SDS011;42438;53.174;6.730;2024-03-02T04:34:01;4.70;;;2.30;;
56541;SDS011;42438;53.174;6.730;2024-03-02T04:36:31;4.30;;;2.30;;
56541;SDS011;42438;53.174;6.730;2024-03-02T04:39:02;4.35;;;2.45;;
56541;SDS011;42438;53.174;6.730;2024-03-02T04:41:32;14.63;;;3.30;;
56541;SDS011;42438;53.174;6.730;2024-03-02T04:44:03;5.43;;;2.95;;
56541;SDS011;42438;53.174;6.730;2024-03-02T04:46:34;4.22;;;2.60;;
56541;SDS011;42438;53.174;6.730;2024-03-02T04:49:04;5.82;;;2.67;;
56541;SDS011;42438;53.174;6.730;2024-03-02T04:51:35;6.30;;;2.80;;
56541;SDS011;42438;53.174;6.730;2024-03-02T04:54:06;4.78;;;2.55;;
56541;SDS011;42438;53.174;6.730;2024-03-02T04:56:36;5.78;;;2.78;;
56541;SDS011;42438;53.174;6.730;2024-03-02T04:59:14;4.95;;;2.63;;
56541;SDS011;42438;53.174;6.730;2024-03-02T05:01:46;3.78;;;2.30;;
56541;SDS011;42438;53.174;6.730;2024-03-02T05:04:17;5.30;;;2.70;;
56541;SDS011;42438;53.174;6.730;2024-03-02T05:06:48;3.60;;;2.30;;
56541;SDS011;42438;53.174;6.730;2024-03-02T05:09:22;5.95;;;2.45;;
56541;SDS011;42438;53.174;6.730;2024-03-02T05:11:53;4.03;;;2.40;;
56541;SDS011;42438;53.174;6.730;2024-03-02T05:14:41;4.35;;;2.60;;
56541;SDS011;42438;53.174;6.730;2024-03-02T05:17:12;4.78;;;2.72;;
56541;SDS011;42438;53.174;6.730;2024-03-02T05:19:43;3.78;;;2.17;;
56541;SDS011;42438;53.174;6.730;2024-03-02T05:22:13;4.10;;;2.45;;
56541;SDS011;42438;53.174;6.730;2024-03-02T05:24:44;5.32;;;2.90;;
56541;SDS011;42438;53.174;6.730;2024-03-02T05:27:14;5.85;;;3.00;;
56541;SDS011;42438;53.174;6.730;2024-03-02T05:29:45;4.65;;;2.38;;
56541;SDS011;42438;53.174;6.730;2024-03-02T05:32:17;4.85;;;2.50;;
56541;SDS011;42438;53.174;6.730;2024-03-02T05:34:47;5.60;;;2.30;;
56541;SDS011;42438;53.174;6.730;2024-03-02T05:37:18;5.57;;;2.90;;
56541;SDS011;42438;53.174;6.730;2024-03-02T05:39:50;5.03;;;2.53;;
56541;SDS011;42438;53.174;6.730;2024-03-02T05:42:20;5.72;;;2.55;;
56541;SDS011;42438;53.174;6.730;2024-03-02T05:44:51;4.43;;;2.70;;
56541;SDS011;42438;53.174;6.730;2024-03-02T05:47:21;5.20;;;2.42;;
56541;SDS011;42438;53.174;6.730;2024-03-02T05:49:52;6.07;;;3.28;;
56541;SDS011;42438;53.174;6.730;2024-03-02T05:52:23;6.88;;;2.58;;
56541;SDS011;42438;53.174;6.730;2024-03-02T05:54:53;5.20;;;2.80;;
56541;SDS011;42438;53.174;6.730;2024-03-02T05:57:24;5.35;;;2.60;;
56541;SDS011;42438;53.174;6.730;2024-03-02T06:00:17;6.00;;;2.70;;
56541;SDS011;42438;53.174;6.730;2024-03-02T06:02:48;4.50;;;2.63;;
56541;SDS011;42438;53.174;6.730;2024-03-02T06:05:19;4.88;;;2.63;;
56541;SDS011;42438;53.174;6.730;2024-03-02T06:07:49;5.55;;;2.85;;
56541;SDS011;42438;53.174;6.730;2024-03-02T06:10:20;7.70;;;3.05;;
56541;SDS011;42438;53.174;6.730;2024-03-02T06:12:51;5.13;;;2.75;;
56541;SDS011;42438;53.174;6.730;2024-03-02T06:15:21;6.07;;;3.03;;
56541;SDS011;42438;53.174;6.730;2024-03-02T06:17:52;5.50;;;2.80;;
56541;SDS011;42438;53.174;6.730;2024-03-02T06:20:23;4.50;;;2.58;;
56541;SDS011;42438;53.174;6.730;2024-03-02T06:22:54;5.53;;;2.75;;
56541;SDS011;42438;53.174;6.730;2024-03-02T06:25:25;5.32;;;2.85;;
56541;SDS011;42438;53.174;6.730;2024-03-02T06:27:56;5.55;;;2.70;;
56541;SDS011;42438;53.174;6.730;2024-03-02T06:30:27;4.43;;;2.40;;
56541;SDS011;42438;53.174;6.730;2024-03-02T06:32:57;6.38;;;2.88;;
56541;SDS011;42438;53.174;6.730;2024-03-02T06:35:28;3.92;;;2.58;;
56541;SDS011;42438;53.174;6.730;2024-03-02T06:37:59;5.30;;;3.08;;
56541;SDS011;42438;53.174;6.730;2024-03-02T06:40:29;5.68;;;2.75;;
56541;SDS011;42438;53.174;6.730;2024-03-02T06:43:00;5.55;;;3.10;;
56541;SDS011;42438;53.174;6.730;2024-03-02T06:45:31;5.18;;;2.92;;
56541;SDS011;42438;53.174;6.730;2024-03-02T06:48:03;4.78;;;2.88;;
56541;SDS011;42438;53.174;6.730;2024-03-02T06:50:35;5.82;;;3.10;;
56541;SDS011;42438;53.174;6.730;2024-03-02T06:53:05;7.75;;;3.17;;
56541;SDS011;42438;53.174;6.730;2024-03-02T06:55:36;6.43;;;2.80;;
56541;SDS011;42438;53.174;6.730;2024-03-02T06:58:06;5.45;;;2.90;;
56541;SDS011;42438;53.174;6.730;2024-03-02T07:00:37;5.63;;;3.40;;
56541;SDS011;42438;53.174;6.730;2024-03-02T07:03:08;5.72;;;3.17;;
56541;SDS011;42438;53.174;6.730;2024-03-02T07:05:39;5.85;;;3.15;;
56541;SDS011;42438;53.174;6.730;2024-03-02T07:08:09;4.82;;;3.15;;
56541;SDS011;42438;53.174;6.730;2024-03-02T07:10:40;5.78;;;2.80;;
56541;SDS011;42438;53.174;6.730;2024-03-02T07:13:11;6.47;;;3.25;;
56541;SDS011;42438;53.174;6.730;2024-03-02T07:15:43;5.15;;;2.92;;
56541;SDS011;42438;53.174;6.730;2024-03-02T07:18:33;5.25;;;2.95;;
56541;SDS011;42438;53.174;6.730;2024-03-02T07:21:05;6.85;;;3.25;;
56541;SDS011;42438;53.174;6.730;2024-03-02T07:23:36;6.55;;;2.90;;
56541;SDS011;42438;53.174;6.730;2024-03-02T07:26:06;4.95;;;2.70;;
56541;SDS011;42438;53.174;6.730;2024-03-02T07:28:37;5.28;;;2.90;;
56541;SDS011;42438;53.174;6.730;2024-03-02T07:31:08;5.93;;;2.95;;
56541;SDS011;42438;53.174;6.730;2024-03-02T07:33:40;4.45;;;3.03;;
56541;SDS011;42438;53.174;6.730;2024-03-02T07:36:10;4.80;;;2.83;;
56541;SDS011;42438;53.174;6.730;2024-03-02T07:38:41;6.45;;;3.20;;
56541;SDS011;42438;53.174;6.730;2024-03-02T07:41:14;4.53;;;2.90;;
56541;SDS011;42438;53.174;6.730;2024-03-02T07:43:45;5.93;;;2.78;;
56541;SDS011;42438;53.174;6.730;2024-03-02T07:46:15;5.97;;;2.97;;
56541;SDS011;42438;53.174;6.730;2024-03-02T07:48:46;6.43;;;3.40;;
56541;SDS011;42438;53.174;6.730;2024-03-02T07:51:18;4.65;;;3.00;;
56541;SDS011;42438;53.174;6.730;2024-03-02T07:53:48;5.15;;;2.95;;
56541;SDS011;42438;53.174;6.730;2024-03-02T07:56:19;6.35;;;3.28;;
56541;SDS011;42438;53.174;6.730;2024-03-02T07:58:52;5.18;;;3.20;;
56541;SDS011;42438;53.174;6.730;2024-03-02T08:01:23;5.07;;;2.42;;
56541;SDS011;42438;53.174;6.730;2024-03-02T08:03:53;6.32;;;2.95;;
56541;SDS011;42438;53.174;6.730;2024-03-02T08:06:25;5.15;;;2.75;;
56541;SDS011;42438;53.174;6.730;2024-03-02T08:08:57;5.38;;;3.17;;
56541;SDS011;42438;53.174;6.730;2024-03-02T08:11:29;4.78;;;3.03;;
56541;SDS011;42438;53.174;6.730;2024-03-02T08:14:01;6.45;;;3.47;;
56541;SDS011;42438;53.174;6.730;2024-03-02T08:16:31;5.93;;;3.08;;
56541;SDS011;42438;53.174;6.730;2024-03-02T08:19:03;4.93;;;3.08;;
56541;SDS011;42438;53.174;6.730;2024-03-02T08:21:34;4.93;;;2.55;;
56541;SDS011;42438;53.174;6.730;2024-03-02T08:24:05;6.60;;;3.50;;
56541;SDS011;42438;53.174;6.730;2024-03-02T08:26:36;5.90;;;3.13;;
56541;SDS011;42438;53.174;6.730;2024-03-02T08:29:07;4.88;;;3.10;;
56541;SDS011;42438;53.174;6.730;2024-03-02T08:31:38;5.45;;;2.70;;
56541;SDS011;42438;53.174;6.730;2024-03-02T08:34:08;7.28;;;2.90;;
56541;SDS011;42438;53.174;6.730;2024-03-02T08:36:39;5.25;;;2.33;;
56541;SDS011;42438;53.174;6.730;2024-03-02T08:39:10;4.13;;;2.22;;
56541;SDS011;42438;53.174;6.730;2024-03-02T08:41:45;4.97;;;2.20;;
56541;SDS011;42438;53.174;6.730;2024-03-02T08:44:16;4.00;;;2.10;;
56541;SDS011;42438;53.174;6.730;2024-03-02T08:46:47;4.85;;;2.40;;
56541;SDS011;42438;53.174;6.730;2024-03-02T08:49:18;3.88;;;2.10;;
56541;SDS011;42438;53.174;6.730;2024-03-02T08:51:48;3.58;;;2.25;;
56541;SDS011;42438;53.174;6.730;2024-03-02T08:54:24;4.80;;;2.42;;
56541;SDS011;42438;53.174;6.730;2024-03-02T08:56:55;4.47;;;2.58;;
56541;SDS011;42438;53.174;6.730;2024-03-02T08:59:25;4.80;;;2.10;;
56541;SDS011;42438;53.174;6.730;2024-03-02T09:01:57;3.92;;;2.28;;
56541;SDS011;42438;53.174;6.730;2024-03-02T09:04:29;3.92;;;1.90;;
56541;SDS011;42438;53.174;6.730;2024-03-02T09:07:00;4.03;;;2.17;;
56541;SDS011;42438;53.174;6.730;2024-03-02T09:09:30;4.68;;;2.10;;
56541;SDS011;42438;53.174;6.730;2024-03-02T09:12:02;3.53;;;1.83;;
56541;SDS011;42438;53.174;6.730;2024-03-02T09:14:32;3.72;;;2.13;;
56541;SDS011;42438;53.174;6.730;2024-03-02T09:17:04;4.43;;;1.83;;
56541;SDS011;42438;53.174;6.730;2024-03-02T09:19:35;3.10;;;1.70;;
56541;SDS011;42438;53.174;6.730;2024-03-02T09:22:05;3.67;;;1.60;;
56541;SDS011;42438;53.174;6.730;2024-03-02T09:24:36;4.50;;;1.73;;
56541;SDS011;42438;53.174;6.730;2024-03-02T09:27:07;3.58;;;1.55;;
56541;SDS011;42438;53.174;6.730;2024-03-02T09:29:37;2.97;;;1.60;;
56541;SDS011;42438;53.174;6.730;2024-03-02T09:32:11;3.50;;;1.73;;
56541;SDS011;42438;53.174;6.730;2024-03-02T09:34:43;3.03;;;1.48;;
56541;SDS011;42438;53.174;6.730;2024-03-02T09:37:14;2.75;;;1.25;;
56541;SDS011;42438;53.174;6.730;2024-03-02T09:39:44;4.18;;;1.60;;
56541;SDS011;42438;53.174;6.730;2024-03-02T09:42:15;2.63;;;1.48;;
56541;SDS011;42438;53.174;6.730;2024-03-02T09:44:47;2.20;;;1.27;;
56541;SDS011;42438;53.174;6.730;2024-03-02T09:47:18;5.70;;;1.52;;
56541;SDS011;42438;53.174;6.730;2024-03-02T09:49:48;4.18;;;1.10;;
56541;SDS011;42438;53.174;6.730;2024-03-02T09:52:19;2.80;;;1.17;;
56541;SDS011;42438;53.174;6.730;2024-03-02T09:54:50;2.80;;;1.10;;
56541;SDS011;42438;53.174;6.730;2024-03-02T09:57:21;4.35;;;1.20;;
56541;SDS011;42438;53.174;6.730;2024-03-02T09:59:51;2.33;;;0.90;;
56541;SDS011;42438;53.174;6.730;2024-03-02T10:02:22;2.80;;;1.00;;
56541;SDS011;42438;53.174;6.730;2024-03-02T10:04:53;2.67;;;1.08;;
56541;SDS011;42438;53.174;6.730;2024-03-02T10:07:23;3.22;;;1.10;;
56541;SDS011;42438;53.174;6.730;2024-03-02T10:09:54;3.38;;;1.10;;
56541;SDS011;42438;53.174;6.730;2024-03-02T10:12:25;3.83;;;0.93;;
56541;SDS011;42438;53.174;6.730;2024-03-02T10:15:02;2.38;;;1.23;;
56541;SDS011;42438;53.174;6.730;2024-03-02T10:17:35;3.13;;;1.40;;
56541;SDS011;42438;53.174;6.730;2024-03-02T10:20:21;4.82;;;1.20;;
56541;SDS011;42438;53.174;6.730;2024-03-02T10:23:09;2.67;;;1.00;;
56541;SDS011;42438;53.174;6.730;2024-03-02T10:25:41;4.00;;;1.77;;
56541;SDS011;42438;53.174;6.730;2024-03-02T10:28:13;3.72;;;1.50;;
56541;SDS011;42438;53.174;6.730;2024-03-02T10:30:47;6.00;;;1.50;;
56541;SDS011;42438;53.174;6.730;2024-03-02T10:35:49;5.55;;;1.30;;
56541;SDS011;42438;53.174;6.730;2024-03-02T10:38:20;3.25;;;1.13;;
56541;SDS011;42438;53.174;6.730;2024-03-02T10:40:51;4.22;;;1.20;;
56541;SDS011;42438;53.174;6.730;2024-03-02T10:43:22;4.90;;;1.20;;
56541;SDS011;42438;53.174;6.730;2024-03-02T10:45:53;2.58;;;1.13;;
56541;SDS011;42438;53.174;6.730;2024-03-02T10:48:26;6.55;;;1.40;;
56541;SDS011;42438;53.174;6.730;2024-03-02T10:50:58;2.83;;;1.08;;
56541;SDS011;42438;53.174;6.730;2024-03-02T10:53:31;3.38;;;1.25;;
56541;SDS011;42438;53.174;6.730;2024-03-02T10:56:02;1.70;;;1.17;;
56541;SDS011;42438;53.174;6.730;2024-03-02T10:58:37;4.57;;;1.10;;
56541;SDS011;42438;53.174;6.730;2024-03-02T11:01:08;4.38;;;1.35;;
56541;SDS011;42438;53.174;6.730;2024-03-02T11:03:42;3.25;;;1.33;;
56541;SDS011;42438;53.174;6.730;2024-03-02T11:06:15;3.45;;;1.50;;
56541;SDS011;42438;53.174;6.730;2024-03-02T11:08:46;3.15;;;1.40;;
56541;SDS011;42438;53.174;6.730;2024-03-02T11:11:21;3.20;;;1.40;;
56541;SDS011;42438;53.174;6.730;2024-03-02T11:13:56;3.80;;;1.30;;
56541;SDS011;42438;53.174;6.730;2024-03-02T11:19:06;4.88;;;1.80;;
56541;SDS011;42438;53.174;6.730;2024-03-02T11:21:41;3.50;;;1.58;;
56541;SDS011;42438;53.174;6.730;2024-03-02T11:26:53;4.57;;;1.95;;
56541;SDS011;42438;53.174;6.730;2024-03-02T11:32:17;4.53;;;1.80;;
56541;SDS011;42438;53.174;6.730;2024-03-02T11:34:51;4.80;;;1.85;;
56541;SDS011;42438;53.174;6.730;2024-03-02T11:37:22;3.65;;;1.75;;
56541;SDS011;42438;53.174;6.730;2024-03-02T11:39:54;3.83;;;1.90;;
56541;SDS011;42438;53.174;6.730;2024-03-02T11:42:25;2.53;;;1.60;;
56541;SDS011;42438;53.174;6.730;2024-03-02T11:44:56;2.88;;;1.83;;
56541;SDS011;42438;53.174;6.730;2024-03-02T11:47:27;5.75;;;2.20;;
56541;SDS011;42438;53.174;6.730;2024-03-02T11:50:01;5.10;;;1.60;;
56541;SDS011;42438;53.174;6.730;2024-03-02T11:52:37;7.88;;;1.80;;
56541;SDS011;42438;53.174;6.730;2024-03-02T11:57:41;2.80;;;1.60;;
56541;SDS011;42438;53.174;6.730;2024-03-02T12:00:18;3.42;;;1.85;;
56541;SDS011;42438;53.174;6.730;2024-03-02T12:03:02;2.63;;;1.55;;
56541;SDS011;42438;53.174;6.730;2024-03-02T12:05:34;3.38;;;2.33;;
56541;SDS011;42438;53.174;6.730;2024-03-02T12:08:05;3.55;;;2.63;;
56541;SDS011;42438;53.174;6.730;2024-03-02T12:10:37;4.15;;;1.83;;
56541;SDS011;42438;53.174;6.730;2024-03-02T12:13:08;5.05;;;2.03;;
56541;SDS011;42438;53.174;6.730;2024-03-02T12:15:41;3.38;;;2.20;;
56541;SDS011;42438;53.174;6.730;2024-03-02T12:18:11;3.03;;;1.85;;
56541;SDS011;42438;53.174;6.730;2024-03-02T12:20:42;3.53;;;1.73;;
56541;SDS011;42438;53.174;6.730;2024-03-02T12:23:13;3.08;;;1.80;;
56541;SDS011;42438;53.174;6.730;2024-03-02T12:25:44;4.82;;;2.28;;
56541;SDS011;42438;53.174;6.730;2024-03-02T12:28:15;3.30;;;2.08;;
56541;SDS011;42438;53.174;6.730;2024-03-02T12:30:46;3.67;;;2.38;;
56541;SDS011;42438;53.174;6.730;2024-03-02T12:33:17;3.35;;;2.08;;
56541;SDS011;42438;53.174;6.730;2024-03-02T12:35:49;6.22;;;2.50;;
56541;SDS011;42438;53.174;6.730;2024-03-02T12:38:20;6.22;;;2.72;;
56541;SDS011;42438;53.174;6.730;2024-03-02T12:40:51;6.22;;;2.95;;
56541;SDS011;42438;53.174;6.730;2024-03-02T12:43:22;5.10;;;2.50;;
56541;SDS011;42438;53.174;6.730;2024-03-02T12:45:54;4.68;;;2.70;;
56541;SDS011;42438;53.174;6.730;2024-03-02T12:48:26;5.10;;;2.88;;
56541;SDS011;42438;53.174;6.730;2024-03-02T12:50:56;5.65;;;2.92;;
56541;SDS011;42438;53.174;6.730;2024-03-02T12:53:27;4.07;;;3.00;;
56541;SDS011;42438;53.174;6.730;2024-03-02T12:55:58;4.35;;;3.08;;
56541;SDS011;42438;53.174;6.730;2024-03-02T12:58:29;7.20;;;3.00;;
56541;SDS011;42438;53.174;6.730;2024-03-02T13:01:07;5.25;;;3.15;;
56541;SDS011;42438;53.174;6.730;2024-03-02T13:03:41;4.22;;;3.60;;
56541;SDS011;42438;53.174;6.730;2024-03-02T13:06:12;6.18;;;3.85;;
56541;SDS011;42438;53.174;6.730;2024-03-02T13:08:43;5.07;;;3.40;;
56541;SDS011;42438;53.174;6.730;2024-03-02T13:11:15;4.77;;;3.53;;
56541;SDS011;42438;53.174;6.730;2024-03-02T13:13:47;5.15;;;3.70;;
56541;SDS011;42438;53.174;6.730;2024-03-02T13:16:18;5.93;;;3.53;;
56541;SDS011;42438;53.174;6.730;2024-03-02T13:18:50;4.90;;;3.50;;
56541;SDS011;42438;53.174;6.730;2024-03-02T13:21:21;4.70;;;3.30;;
56541;SDS011;42438;53.174;6.730;2024-03-02T13:23:52;5.65;;;3.60;;
56541;SDS011;42438;53.174;6.730;2024-03-02T13:26:22;5.68;;;3.40;;
56541;SDS011;42438;53.174;6.730;2024-03-02T13:28:53;4.45;;;3.17;;
56541;SDS011;42438;53.174;6.730;2024-03-02T13:31:23;5.82;;;3.30;;
56541;SDS011;42438;53.174;6.730;2024-03-02T13:33:54;7.22;;;3.60;;
56541;SDS011;42438;53.174;6.730;2024-03-02T13:36:25;4.70;;;2.95;;
56541;SDS011;42438;53.174;6.730;2024-03-02T13:38:55;5.72;;;3.30;;
56541;SDS011;42438;53.174;6.730;2024-03-02T13:41:28;4.95;;;3.10;;
56541;SDS011;42438;53.174;6.730;2024-03-02T13:43:58;6.13;;;3.72;;
56541;SDS011;42438;53.174;6.730;2024-03-02T13:46:31;5.50;;;3.43;;
56541;SDS011;42438;53.174;6.730;2024-03-02T13:49:02;6.10;;;3.20;;
56541;SDS011;42438;53.174;6.730;2024-03-02T13:51:34;5.95;;;3.00;;
56541;SDS011;42438;53.174;6.730;2024-03-02T13:54:04;7.10;;;2.95;;
56541;SDS011;42438;53.174;6.730;2024-03-02T13:56:35;5.68;;;2.90;;
56541;SDS011;42438;53.174;6.730;2024-03-02T14:01:39;6.40;;;2.55;;
56541;SDS011;42438;53.174;6.730;2024-03-02T14:04:10;5.45;;;2.85;;
56541;SDS011;42438;53.174;6.730;2024-03-02T14:06:42;4.45;;;2.50;;
56541;SDS011;42438;53.174;6.730;2024-03-02T14:09:13;5.72;;;2.80;;
56541;SDS011;42438;53.174;6.730;2024-03-02T14:11:44;3.72;;;2.20;;
56541;SDS011;42438;53.174;6.730;2024-03-02T14:14:15;4.70;;;2.30;;
56541;SDS011;42438;53.174;6.730;2024-03-02T14:16:45;3.38;;;1.95;;
56541;SDS011;42438;53.174;6.730;2024-03-02T14:19:16;4.32;;;2.13;;
56541;SDS011;42438;53.174;6.730;2024-03-02T14:21:47;6.30;;;2.22;;
56541;SDS011;42438;53.174;6.730;2024-03-02T14:24:18;5.07;;;2.00;;
56541;SDS011;42438;53.174;6.730;2024-03-02T14:26:48;6.35;;;2.72;;
56541;SDS011;42438;53.174;6.730;2024-03-02T14:29:19;5.85;;;2.90;;
56541;SDS011;42438;53.174;6.730;2024-03-02T14:31:50;4.40;;;2.60;;
56541;SDS011;42438;53.174;6.730;2024-03-02T14:34:20;4.00;;;2.75;;
56541;SDS011;42438;53.174;6.730;2024-03-02T14:36:52;6.00;;;2.95;;
56541;SDS011;42438;53.174;6.730;2024-03-02T14:39:22;5.05;;;2.80;;
56541;SDS011;42438;53.174;6.730;2024-03-02T14:41:53;5.82;;;2.97;;
56541;SDS011;42438;53.174;6.730;2024-03-02T14:44:25;4.18;;;2.40;;
56541;SDS011;42438;53.174;6.730;2024-03-02T14:46:56;7.55;;;2.67;;
56541;SDS011;42438;53.174;6.730;2024-03-02T14:49:28;8.32;;;2.90;;
56541;SDS011;42438;53.174;6.730;2024-03-02T14:51:59;5.07;;;2.30;;
56541;SDS011;42438;53.174;6.730;2024-03-02T14:54:30;4.35;;;2.22;;
56541;SDS011;42438;53.174;6.730;2024-03-02T14:57:00;4.57;;;2.60;;
56541;SDS011;42438;53.174;6.730;2024-03-02T14:59:33;4.70;;;2.55;;
56541;SDS011;42438;53.174;6.730;2024-03-02T15:02:03;5.28;;;2.50;;
56541;SDS011;42438;53.174;6.730;2024-03-02T15:04:34;5.55;;;2.45;;
56541;SDS011;42438;53.174;6.730;2024-03-02T15:07:05;5.75;;;2.70;;
56541;SDS011;42438;53.174;6.730;2024-03-02T15:09:36;4.55;;;2.50;;
56541;SDS011;42438;53.174;6.730;2024-03-02T15:12:07;3.58;;;2.20;;
56541;SDS011;42438;53.174;6.730;2024-03-02T15:14:43;4.78;;;3.03;;
56541;SDS011;42438;53.174;6.730;2024-03-02T15:17:17;6.95;;;3.00;;
56541;SDS011;42438;53.174;6.730;2024-03-02T15:19:48;6.25;;;2.58;;
56541;SDS011;42438;53.174;6.730;2024-03-02T15:22:18;5.47;;;2.90;;
56541;SDS011;42438;53.174;6.730;2024-03-02T15:24:49;7.40;;;3.33;;
56541;SDS011;42438;53.174;6.730;2024-03-02T15:27:21;6.68;;;3.05;;
56541;SDS011;42438;53.174;6.730;2024-03-02T15:29:51;8.30;;;3.47;;